createdAt,value
2019-05-30T00:00:16.483Z,10.39
2019-05-30T00:00:49.206Z,10.38
2019-05-30T00:01:49.429Z,10.38
2019-05-30T00:02:49.732Z,10.39
2019-05-30T00:03:51.064Z,10.34
2019-05-30T00:04:50.669Z,10.41
2019-05-30T00:05:51.833Z,10.45
2019-05-30T00:06:52.299Z,10.39
2019-05-30T00:07:54.034Z,10.42
2019-05-30T00:08:54.878Z,10.42
2019-05-30T00:09:54.802Z,10.39
2019-05-30T00:10:54.942Z,10.39
2019-05-30T00:11:54.969Z,10.45
2019-05-30T00:12:56.593Z,10.39
2019-05-30T00:13:58.600Z,10.43
2019-05-30T00:14:56.860Z,10.57
2019-05-30T00:15:59.302Z,10.49
2019-05-30T00:17:00.823Z,10.48
2019-05-30T00:18:01.170Z,10.53
2019-05-30T00:19:01.148Z,10.48
2019-05-30T00:20:03.144Z,10.49
2019-05-30T00:21:03.201Z,10.43
2019-05-30T00:22:05.918Z,10.48
2019-05-30T00:23:02.634Z,10.45
2019-05-30T00:24:04.523Z,10.58
2019-05-30T00:25:04.883Z,10.41
2019-05-30T00:26:04.877Z,10.45
2019-05-30T00:27:04.834Z,10.53
2019-05-30T00:28:05.795Z,10.46
2019-05-30T00:29:07.224Z,10.41
2019-05-30T00:30:24.996Z,10.41
2019-05-30T00:31:07.185Z,10.51
2019-05-30T00:32:08.434Z,10.46
2019-05-30T00:33:09.007Z,10.43
2019-05-30T00:34:09.717Z,10.42
2019-05-30T00:35:09.315Z,10.43
2019-05-30T00:36:09.714Z,10.43
2019-05-30T00:37:11.448Z,10.48
2019-05-30T00:38:11.572Z,10.41
2019-05-30T00:39:12.063Z,10.45
2019-05-30T00:40:11.645Z,10.38
2019-05-30T00:41:12.657Z,10.42
2019-05-30T00:42:12.600Z,10.38
2019-05-30T00:43:12.744Z,10.38
2019-05-30T00:44:13.166Z,10.43
2019-05-30T00:45:26.107Z,10.38
2019-05-30T00:46:14.221Z,10.45
2019-05-30T00:47:14.635Z,10.39
2019-05-30T00:48:15.047Z,10.38
2019-05-30T00:49:16.014Z,10.39
2019-05-30T00:50:16.725Z,10.38
2019-05-30T00:51:17.404Z,10.34
2019-05-30T00:52:17.706Z,10.34
2019-05-30T00:53:18.393Z,10.36
2019-05-30T00:54:19.082Z,10.41
2019-05-30T00:55:19.508Z,10.38
2019-05-30T00:56:19.906Z,10.39
2019-05-30T00:57:21.187Z,10.39
2019-05-30T00:58:21.894Z,10.39
2019-05-30T00:59:22.290Z,10.39
2019-05-30T01:00:22.692Z,10.39
2019-05-30T01:01:23.266Z,10.34
2019-05-30T01:02:24.297Z,10.23
2019-05-30T01:03:24.719Z,10.34
2019-05-30T01:04:25.154Z,10.28
2019-05-30T01:05:27.556Z,10.33
2019-05-30T01:06:26.272Z,10.34
2019-05-30T01:07:26.726Z,10.41
2019-05-30T01:08:27.122Z,10.39
2019-05-30T01:09:27.806Z,10.33
2019-05-30T01:10:27.926Z,10.38
2019-05-30T01:11:28.075Z,10.39
2019-05-30T01:12:29.044Z,10.34
2019-05-30T01:13:29.458Z,10.34
2019-05-30T01:14:29.856Z,10.34
2019-05-30T01:15:30.824Z,10.34
2019-05-30T01:16:31.574Z,10.31
2019-05-30T01:17:31.633Z,10.25
2019-05-30T01:18:31.795Z,10.34
2019-05-30T01:19:32.225Z,10.31
2019-05-30T01:20:33.216Z,10.33
2019-05-30T01:21:33.645Z,10.23
2019-05-30T01:22:34.309Z,10.27
2019-05-30T01:23:34.996Z,10.23
2019-05-30T01:24:35.114Z,10.25
2019-05-30T01:25:35.827Z,10.25
2019-05-30T01:26:36.519Z,10.3
2019-05-30T01:27:36.643Z,10.25
2019-05-30T01:28:37.350Z,10.27
2019-05-30T01:29:38.092Z,10.27
2019-05-30T01:30:38.354Z,10.25
2019-05-30T01:31:39.199Z,10.25
2019-05-30T01:32:39.429Z,10.23
2019-05-30T01:33:40.142Z,10.24
2019-05-30T01:34:40.257Z,10.23
2019-05-30T01:35:40.653Z,10.21
2019-05-30T01:36:41.045Z,10.2
2019-05-30T01:37:41.453Z,10.2
2019-05-30T01:38:41.586Z,10.21
2019-05-30T01:39:42.004Z,10.15
2019-05-30T01:40:42.125Z,10.23
2019-05-30T01:41:42.241Z,10.27
2019-05-30T01:42:42.764Z,10.27
2019-05-30T01:43:43.454Z,10.23
2019-05-30T01:44:44.142Z,10.25
2019-05-30T01:45:44.849Z,10.25
2019-05-30T01:46:45.318Z,10.24
2019-05-30T01:47:46.009Z,10.21
2019-05-30T01:48:46.275Z,10.21
2019-05-30T01:49:46.691Z,10.24
2019-05-30T01:50:47.351Z,10.21
2019-05-30T01:51:48.720Z,10.21
2019-05-30T01:52:48.868Z,10.15
2019-05-30T01:53:49.970Z,10.17
2019-05-30T01:54:50.616Z,10.25
2019-05-30T01:55:54.195Z,10.24
2019-05-30T01:56:51.630Z,10.23
2019-05-30T01:57:52.408Z,10.31
2019-05-30T01:58:53.210Z,10.24
2019-05-30T01:59:53.610Z,10.17
2019-05-30T02:00:54.598Z,10.25
2019-05-30T02:01:54.738Z,10.24
2019-05-30T02:02:55.196Z,10.21
2019-05-30T02:03:55.766Z,10.1
2019-05-30T02:04:55.441Z,10.25
2019-05-30T02:05:55.685Z,10.23
2019-05-30T02:06:56.715Z,10.12
2019-05-30T02:07:57.519Z,10.17
2019-05-30T02:08:59.662Z,10.12
2019-05-30T02:09:59.424Z,10.12
2019-05-30T02:10:59.755Z,10.12
2019-05-30T02:12:01.020Z,10.12
2019-05-30T02:13:01.440Z,10.1
2019-05-30T02:14:03.494Z,10.03
2019-05-30T02:15:02.081Z,10.09
2019-05-30T02:16:04.138Z,10.1
2019-05-30T02:17:04.233Z,10.09
2019-05-30T02:18:03.854Z,10.05
2019-05-30T02:19:06.084Z,10.06
2019-05-30T02:20:06.104Z,10.03
2019-05-30T02:21:06.175Z,10.06
2019-05-30T02:22:08.516Z,10.03
2019-05-30T02:23:11.861Z,10.05
2019-05-30T02:24:08.260Z,10.02
2019-05-30T02:25:10.963Z,10.06
2019-05-30T02:26:11.183Z,10.06
2019-05-30T02:27:10.634Z,10.02
2019-05-30T02:28:10.691Z,10.03
2019-05-30T02:29:10.756Z,9.97
2019-05-30T02:30:15.640Z,9.92
2019-05-30T02:31:13.299Z,10.03
2019-05-30T02:32:12.547Z,10.02
2019-05-30T02:33:15.156Z,9.87
2019-05-30T02:34:15.811Z,9.85
2019-05-30T02:35:18.200Z,9.91
2019-05-30T02:36:18.044Z,9.84
2019-05-30T02:37:18.195Z,9.85
2019-05-30T02:38:17.457Z,9.9
2019-05-30T02:39:18.246Z,9.82
2019-05-30T02:40:20.901Z,9.84
2019-05-30T02:41:18.441Z,9.84
2019-05-30T02:42:18.429Z,9.85
2019-05-30T02:43:19.437Z,9.82
2019-05-30T02:44:19.864Z,9.87
2019-05-30T02:45:20.262Z,9.91
2019-05-30T02:46:20.721Z,9.82
2019-05-30T02:47:22.938Z,9.81
2019-05-30T02:48:22.659Z,9.74
2019-05-30T02:49:23.685Z,9.76
2019-05-30T02:50:23.972Z,9.73
2019-05-30T02:51:24.410Z,9.7
2019-05-30T02:52:24.545Z,9.73
2019-05-30T02:53:25.332Z,9.74
2019-05-30T02:54:26.042Z,9.72
2019-05-30T02:55:26.458Z,9.73
2019-05-30T02:56:26.871Z,9.72
2019-05-30T02:57:27.564Z,9.74
2019-05-30T02:58:27.981Z,9.69
2019-05-30T02:59:29.022Z,9.73
2019-05-30T03:00:29.438Z,9.74
2019-05-30T03:01:30.162Z,9.74
2019-05-30T03:02:30.331Z,9.7
2019-05-30T03:03:30.207Z,9.67
2019-05-30T03:04:31.484Z,9.62
2019-05-30T03:05:32.206Z,9.63
2019-05-30T03:06:32.919Z,9.72
2019-05-30T03:07:33.942Z,9.72
2019-05-30T03:08:34.665Z,9.7
2019-05-30T03:09:35.649Z,9.62
2019-05-30T03:10:36.450Z,9.67
2019-05-30T03:11:36.898Z,9.66
2019-05-30T03:12:37.904Z,9.66
2019-05-30T03:13:38.150Z,9.63
2019-05-30T03:14:38.290Z,9.66
2019-05-30T03:15:39.053Z,9.67
2019-05-30T03:16:39.775Z,9.66
2019-05-30T03:17:40.486Z,9.67
2019-05-30T03:18:41.207Z,9.63
2019-05-30T03:19:41.919Z,9.69
2019-05-30T03:20:42.913Z,9.69
2019-05-30T03:21:43.346Z,9.64
2019-05-30T03:22:44.358Z,9.66
2019-05-30T03:23:44.603Z,9.63
2019-05-30T03:24:45.658Z,9.69
2019-05-30T03:25:46.646Z,9.7
2019-05-30T03:26:47.661Z,9.63
2019-05-30T03:27:47.828Z,9.64
2019-05-30T03:28:53.732Z,9.69
2019-05-30T03:29:50.129Z,9.67
2019-05-30T03:30:50.275Z,9.64
2019-05-30T03:31:50.832Z,9.66
2019-05-30T03:33:42.348Z,9.64
2019-05-30T03:34:35.602Z,9.66
2019-05-30T03:35:47.573Z,9.62
2019-05-30T03:36:37.906Z,9.66
2019-05-30T03:37:38.278Z,9.58
2019-05-30T03:38:38.621Z,9.69
2019-05-30T03:39:38.711Z,9.66
2019-05-30T03:40:39.712Z,9.58
2019-05-30T03:41:40.709Z,9.64
2019-05-30T03:42:41.134Z,9.58
2019-05-30T03:43:41.839Z,9.52
2019-05-30T03:44:42.227Z,9.51
2019-05-30T03:45:42.976Z,9.58
2019-05-30T03:46:43.271Z,9.49
2019-05-30T03:47:44.001Z,9.54
2019-05-30T03:48:44.987Z,9.63
2019-05-30T03:49:45.781Z,9.52
2019-05-30T03:50:46.808Z,9.64
2019-05-30T03:51:47.848Z,9.49
2019-05-30T03:52:48.571Z,9.55
2019-05-30T03:53:49.888Z,9.49
2019-05-30T03:54:49.452Z,9.51
2019-05-30T03:55:50.453Z,9.52
2019-05-30T03:56:51.203Z,9.56
2019-05-30T03:57:52.518Z,9.51
2019-05-30T03:58:52.936Z,9.48
2019-05-30T03:59:53.362Z,9.64
2019-05-30T04:00:57.084Z,9.66
2019-05-30T04:01:54.456Z,9.59
2019-05-30T04:03:06.277Z,9.64
2019-05-30T04:03:55.680Z,9.64
2019-05-30T04:04:56.598Z,9.58
2019-05-30T04:05:57.525Z,9.69
2019-05-30T04:06:57.673Z,9.63
2019-05-30T04:07:57.860Z,9.69
2019-05-30T04:08:58.352Z,9.66
2019-05-30T04:09:59.054Z,9.66
2019-05-30T04:10:59.324Z,9.63
2019-05-30T04:12:00.376Z,9.72
2019-05-30T04:13:01.070Z,9.72
2019-05-30T04:14:01.460Z,9.67
2019-05-30T04:15:02.018Z,9.77
2019-05-30T04:16:02.618Z,9.76
2019-05-30T04:17:02.542Z,9.72
2019-05-30T04:18:03.558Z,9.8
2019-05-30T04:19:04.380Z,9.81
2019-05-30T04:20:04.275Z,9.85
2019-05-30T04:21:05.614Z,9.73
2019-05-30T04:22:09.311Z,9.76
2019-05-30T04:23:10.665Z,9.81
2019-05-30T04:24:10.149Z,9.69
2019-05-30T04:25:10.069Z,9.64
2019-05-30T04:26:11.491Z,9.59
2019-05-30T04:27:11.995Z,9.7
2019-05-30T04:28:11.933Z,9.64
2019-05-30T04:29:14.910Z,9.67
2019-05-30T04:30:16.300Z,9.63
2019-05-30T04:31:16.936Z,9.62
2019-05-30T04:32:16.276Z,9.64
2019-05-30T04:33:34.321Z,9.56
2019-05-30T04:34:19.521Z,9.54
2019-05-30T04:35:18.772Z,9.52
2019-05-30T04:36:19.077Z,9.52
2019-05-30T04:37:19.017Z,9.64
2019-05-30T04:38:19.822Z,9.51
2019-05-30T04:39:19.785Z,9.59
2019-05-30T04:40:20.630Z,9.59
2019-05-30T04:41:21.285Z,9.62
2019-05-30T04:42:21.193Z,9.64
2019-05-30T04:43:21.119Z,9.55
2019-05-30T04:44:22.058Z,9.55
2019-05-30T04:45:26.458Z,9.58
2019-05-30T04:46:24.914Z,9.51
2019-05-30T04:47:21.613Z,9.58
2019-05-30T04:48:24.517Z,9.58
2019-05-30T04:49:24.890Z,9.58
2019-05-30T04:50:25.947Z,9.59
2019-05-30T04:51:27.382Z,9.64
2019-05-30T04:52:30.041Z,9.66
2019-05-30T04:53:26.846Z,9.63
2019-05-30T04:54:27.268Z,9.72
2019-05-30T04:55:28.684Z,9.66
2019-05-30T04:56:27.540Z,9.67
2019-05-30T04:57:32.597Z,9.63
2019-05-30T04:58:29.875Z,9.63
2019-05-30T04:59:29.387Z,9.66
2019-05-30T05:00:30.105Z,9.67
2019-05-30T05:01:31.401Z,9.69
2019-05-30T05:02:31.401Z,9.73
2019-05-30T05:03:51.202Z,9.73
2019-05-30T05:04:33.182Z,9.72
2019-05-30T05:05:33.507Z,9.74
2019-05-30T05:06:33.496Z,9.72
2019-05-30T05:07:34.241Z,9.74
2019-05-30T05:08:34.550Z,9.82
2019-05-30T05:09:34.580Z,9.87
2019-05-30T05:10:34.705Z,9.76
2019-05-30T05:11:35.421Z,9.84
2019-05-30T05:12:35.564Z,9.87
2019-05-30T05:13:36.555Z,9.85
2019-05-30T05:14:37.264Z,9.94
2019-05-30T05:15:37.727Z,9.95
2019-05-30T05:16:42.329Z,9.97
2019-05-30T05:17:39.326Z,9.97
2019-05-30T05:18:40.050Z,10.03
2019-05-30T05:19:40.791Z,10.05
2019-05-30T05:20:42.530Z,10.05
2019-05-30T05:21:42.338Z,10.13
2019-05-30T05:22:43.036Z,10.09
2019-05-30T05:23:43.456Z,10.09
2019-05-30T05:24:43.851Z,10.17
2019-05-30T05:26:01.546Z,10.15
2019-05-30T05:26:44.241Z,10.07
2019-05-30T05:27:44.654Z,10.21
2019-05-30T05:28:45.331Z,10.24
2019-05-30T05:29:45.453Z,10.23
2019-05-30T05:30:45.874Z,10.36
2019-05-30T05:31:45.997Z,10.43
2019-05-30T05:32:46.410Z,10.42
2019-05-30T05:34:01.862Z,10.42
2019-05-30T05:34:47.563Z,10.49
2019-05-30T05:35:48.812Z,10.62
2019-05-30T05:36:49.505Z,10.64
2019-05-30T05:37:49.628Z,10.69
2019-05-30T05:38:49.756Z,10.72
2019-05-30T05:39:49.875Z,10.76
2019-05-30T05:40:50.278Z,10.79
2019-05-30T05:41:50.408Z,10.87
2019-05-30T05:42:50.529Z,10.77
2019-05-30T05:43:50.945Z,10.9
2019-05-30T05:44:51.639Z,11.02
2019-05-30T05:45:52.162Z,11.05
2019-05-30T05:46:52.563Z,11.12
2019-05-30T05:47:53.274Z,11.1
2019-05-30T05:48:54.001Z,11.26
2019-05-30T05:49:54.695Z,11.22
2019-05-30T05:50:54.843Z,11.34
2019-05-30T05:51:55.566Z,11.27
2019-05-30T05:52:56.264Z,11.27
2019-05-30T05:53:56.396Z,11.35
2019-05-30T05:54:56.845Z,11.37
2019-05-30T05:55:57.783Z,11.45
2019-05-30T05:56:58.260Z,11.52
2019-05-30T05:57:58.692Z,11.55
2019-05-30T05:58:59.678Z,11.62
2019-05-30T06:00:00.120Z,11.71
2019-05-30T06:01:01.759Z,11.89
2019-05-30T06:02:02.179Z,11.85
2019-05-30T06:03:03.210Z,11.89
2019-05-30T06:04:19.389Z,11.95
2019-05-30T06:05:04.813Z,12
2019-05-30T06:06:05.182Z,11.97
2019-05-30T06:07:05.582Z,12.02
2019-05-30T06:08:06.204Z,11.86
2019-05-30T06:09:07.537Z,11.95
2019-05-30T06:10:08.457Z,12
2019-05-30T06:11:08.667Z,12
2019-05-30T06:12:09.080Z,12.07
2019-05-30T06:13:10.075Z,11.97
2019-05-30T06:14:10.025Z,11.93
2019-05-30T06:15:11.379Z,11.71
2019-05-30T06:16:11.913Z,11.67
2019-05-30T06:17:12.238Z,11.67
2019-05-30T06:18:12.772Z,11.73
2019-05-30T06:19:12.628Z,11.78
2019-05-30T06:20:12.801Z,11.89
2019-05-30T06:21:13.465Z,12.02
2019-05-30T06:22:14.313Z,12.02
2019-05-30T06:23:15.480Z,11.99
2019-05-30T06:24:17.518Z,12.03
2019-05-30T06:25:22.187Z,12.07
2019-05-30T06:26:18.289Z,12.07
2019-05-30T06:27:18.087Z,12.05
2019-05-30T06:28:18.302Z,12.05
2019-05-30T06:29:20.000Z,12.15
2019-05-30T06:30:20.691Z,12.17
2019-05-30T06:31:20.889Z,12.2
2019-05-30T06:32:22.749Z,12.28
2019-05-30T06:33:21.191Z,12.23
2019-05-30T06:34:40.409Z,12.29
2019-05-30T06:35:25.567Z,12.26
2019-05-30T06:36:25.334Z,12.25
2019-05-30T06:37:25.750Z,12.37
2019-05-30T06:38:27.618Z,12.33
2019-05-30T06:39:27.892Z,12.35
2019-05-30T06:40:32.232Z,12.33
2019-05-30T06:41:28.297Z,12.32
2019-05-30T06:42:30.191Z,12.2
2019-05-30T06:43:30.900Z,12.17
2019-05-30T06:44:30.511Z,12.25
2019-05-30T06:45:30.986Z,12.2
2019-05-30T06:46:31.392Z,12.32
2019-05-30T06:47:31.057Z,12.18
2019-05-30T06:48:32.916Z,12.26
2019-05-30T06:49:32.611Z,12.35
2019-05-30T06:50:32.643Z,12.37
2019-05-30T06:51:32.785Z,12.36
2019-05-30T06:52:33.195Z,12.36
2019-05-30T06:53:35.457Z,12.47
2019-05-30T06:54:35.103Z,12.54
2019-05-30T06:55:35.798Z,12.65
2019-05-30T06:56:35.755Z,12.69
2019-05-30T06:57:36.903Z,12.69
2019-05-30T06:58:53.599Z,12.86
2019-05-30T06:59:37.623Z,12.86
2019-05-30T07:00:38.459Z,13.05
2019-05-30T07:01:38.154Z,13.08
2019-05-30T07:02:39.775Z,13.16
2019-05-30T07:03:39.937Z,13.19
2019-05-30T07:04:58.283Z,13.2
2019-05-30T07:05:42.992Z,13.27
2019-05-30T07:06:42.784Z,13.24
2019-05-30T07:07:43.476Z,13.39
2019-05-30T07:08:42.548Z,13.45
2019-05-30T07:09:42.970Z,13.46
2019-05-30T07:10:43.093Z,13.71
2019-05-30T07:11:43.511Z,13.79
2019-05-30T07:12:43.652Z,13.87
2019-05-30T07:13:44.639Z,14.03
2019-05-30T07:14:45.065Z,14.18
2019-05-30T07:15:45.186Z,14.22
2019-05-30T07:16:45.868Z,14.33
2019-05-30T07:17:46.570Z,14.36
2019-05-30T07:18:47.575Z,14.34
2019-05-30T07:19:48.567Z,14.43
2019-05-30T07:20:48.704Z,14.58
2019-05-30T07:21:49.108Z,14.59
2019-05-30T07:22:49.569Z,14.61
2019-05-30T07:23:49.713Z,14.68
2019-05-30T07:24:49.855Z,14.96
2019-05-30T07:25:49.997Z,15.08
2019-05-30T07:26:50.680Z,15.17
2019-05-30T07:27:50.802Z,15.14
2019-05-30T07:28:51.567Z,15.02
2019-05-30T07:29:52.153Z,14.97
2019-05-30T07:30:52.586Z,15.08
2019-05-30T07:31:53.582Z,14.85
2019-05-30T07:32:53.569Z,14.82
2019-05-30T07:33:53.978Z,14.58
2019-05-30T07:35:08.859Z,14.62
2019-05-30T07:35:55.261Z,14.78
2019-05-30T07:36:55.769Z,15
2019-05-30T07:37:56.266Z,15.18
2019-05-30T07:38:56.696Z,15.14
2019-05-30T07:39:56.822Z,15.14
2019-05-30T07:40:57.246Z,15.17
2019-05-30T07:42:11.517Z,15.1
2019-05-30T07:42:57.951Z,14.96
2019-05-30T07:43:58.650Z,15
2019-05-30T07:44:58.777Z,14.99
2019-05-30T07:46:04.327Z,15.3
2019-05-30T07:46:59.586Z,15.59
2019-05-30T07:48:00.039Z,15.91
2019-05-30T07:49:00.875Z,16.32
2019-05-30T07:50:02.023Z,16.82
2019-05-30T07:51:02.416Z,17.2
2019-05-30T07:52:03.033Z,17.59
2019-05-30T07:53:03.101Z,18.02
2019-05-30T07:54:03.886Z,18.31
2019-05-30T07:55:04.609Z,18.55
2019-05-30T07:56:05.349Z,18.86
2019-05-30T07:57:06.182Z,19.12
2019-05-30T07:58:06.904Z,19.47
2019-05-30T07:59:07.396Z,19.72
2019-05-30T08:00:07.603Z,19.97
2019-05-30T08:01:07.840Z,20.29
2019-05-30T08:02:08.657Z,20.59
2019-05-30T08:03:08.888Z,20.89
2019-05-30T08:04:09.157Z,21.07
2019-05-30T08:05:25.059Z,20.78
2019-05-30T08:06:10.620Z,20.89
2019-05-30T08:07:11.215Z,19.97
2019-05-30T08:08:11.791Z,19.63
2019-05-30T08:09:12.234Z,19.59
2019-05-30T08:10:12.667Z,19.87
2019-05-30T08:11:15.849Z,19.79
2019-05-30T08:12:13.914Z,19.84
2019-05-30T08:13:14.410Z,19.72
2019-05-30T08:14:14.554Z,19.74
2019-05-30T08:15:15.293Z,20.03
2019-05-30T08:16:15.731Z,20.17
2019-05-30T08:17:15.781Z,19.6
2019-05-30T08:18:16.662Z,19.62
2019-05-30T08:19:16.709Z,19.79
2019-05-30T08:20:17.489Z,19.84
2019-05-30T08:21:17.994Z,19.75
2019-05-30T08:22:18.151Z,19.55
2019-05-30T08:23:19.018Z,19.19
2019-05-30T08:24:18.953Z,19.48
2019-05-30T08:25:19.285Z,19.66
2019-05-30T08:26:24.016Z,19.7
2019-05-30T08:27:21.115Z,19.92
2019-05-30T08:28:21.516Z,20.48
2019-05-30T08:29:21.927Z,20.22
2019-05-30T08:30:23.054Z,19.81
2019-05-30T08:31:23.780Z,19.89
2019-05-30T08:32:23.987Z,19.63
2019-05-30T08:33:27.460Z,19.84
2019-05-30T08:34:24.844Z,19.81
2019-05-30T08:35:49.434Z,20.58
2019-05-30T08:36:26.210Z,20.95
2019-05-30T08:37:26.754Z,21.03
2019-05-30T08:38:27.260Z,20.6
2019-05-30T08:39:27.496Z,20.24
2019-05-30T08:40:29.628Z,20.02
2019-05-30T08:41:29.679Z,19.89
2019-05-30T08:42:31.292Z,19.34
2019-05-30T08:43:29.731Z,19.67
2019-05-30T08:44:31.839Z,19.94
2019-05-30T08:45:31.890Z,20
2019-05-30T08:46:33.705Z,20.4
2019-05-30T08:47:34.461Z,20.73
2019-05-30T08:48:34.702Z,20.53
2019-05-30T08:49:34.585Z,21.03
2019-05-30T08:50:42.503Z,21.15
2019-05-30T08:51:36.819Z,21.54
2019-05-30T08:52:38.478Z,21.85
2019-05-30T08:53:38.717Z,21.89
2019-05-30T08:54:40.255Z,22.49
2019-05-30T08:55:40.880Z,22.81
2019-05-30T08:56:41.255Z,22.95
2019-05-30T08:57:41.386Z,22.71
2019-05-30T08:58:42.234Z,23.04
2019-05-30T08:59:45.149Z,23.21
2019-05-30T09:00:42.855Z,23.36
2019-05-30T09:01:44.472Z,23.2
2019-05-30T09:02:43.229Z,22.63
2019-05-30T09:03:46.239Z,22.03
2019-05-30T09:04:46.297Z,21.91
2019-05-30T09:06:05.019Z,21.3
2019-05-30T09:06:46.376Z,20.93
2019-05-30T09:07:46.906Z,20.33
2019-05-30T09:08:47.857Z,20.12
2019-05-30T09:09:47.747Z,19.97
2019-05-30T09:10:48.432Z,19.77
2019-05-30T09:11:47.851Z,19.85
2019-05-30T09:12:51.887Z,19.85
2019-05-30T09:13:48.595Z,19.62
2019-05-30T09:14:51.302Z,19.63
2019-05-30T09:15:50.743Z,19.47
2019-05-30T09:16:54.876Z,19.23
2019-05-30T09:17:52.876Z,18.67
2019-05-30T09:18:53.146Z,18.67
2019-05-30T09:19:53.169Z,18.41
2019-05-30T09:20:53.176Z,18.31
2019-05-30T09:21:52.987Z,18.03
2019-05-30T09:22:54.000Z,17.9
2019-05-30T09:24:01.305Z,17.66
2019-05-30T09:24:54.349Z,17.63
2019-05-30T09:25:55.092Z,17.32
2019-05-30T09:26:56.275Z,17.14
2019-05-30T09:27:56.791Z,16.91
2019-05-30T09:28:57.214Z,16.79
2019-05-30T09:29:57.893Z,16.82
2019-05-30T09:30:58.031Z,16.68
2019-05-30T09:31:58.160Z,16.64
2019-05-30T09:32:58.568Z,16.49
2019-05-30T09:33:59.254Z,16.28
2019-05-30T09:34:59.526Z,16.13
2019-05-30T09:36:14.023Z,15.98
2019-05-30T09:37:00.834Z,15.88
2019-05-30T09:38:00.949Z,15.78
2019-05-30T09:39:01.410Z,15.76
2019-05-30T09:40:02.137Z,15.54
2019-05-30T09:41:02.551Z,15.5
2019-05-30T09:42:03.557Z,15.44
2019-05-30T09:43:04.264Z,15.32
2019-05-30T09:44:04.405Z,15.27
2019-05-30T09:45:04.846Z,15.19
2019-05-30T09:46:04.972Z,15.17
2019-05-30T09:47:05.521Z,15.12
2019-05-30T09:48:05.753Z,15.07
2019-05-30T09:49:05.877Z,15.05
2019-05-30T09:50:10.053Z,15.07
2019-05-30T09:51:06.759Z,15.07
2019-05-30T09:52:07.501Z,15.04
2019-05-30T09:53:07.937Z,14.92
2019-05-30T09:54:08.382Z,14.96
2019-05-30T09:55:08.594Z,14.89
2019-05-30T09:56:09.003Z,14.79
2019-05-30T09:57:09.985Z,14.86
2019-05-30T09:58:09.781Z,14.79
2019-05-30T09:59:09.905Z,14.68
2019-05-30T10:00:11.196Z,14.66
2019-05-30T10:01:11.927Z,14.74
2019-05-30T10:02:12.053Z,14.71
2019-05-30T10:03:12.942Z,14.7
2019-05-30T10:04:13.366Z,14.67
2019-05-30T10:05:14.153Z,14.59
2019-05-30T10:06:30.153Z,14.66
2019-05-30T10:07:15.926Z,14.52
2019-05-30T10:08:16.587Z,14.52
2019-05-30T10:09:17.048Z,14.48
2019-05-30T10:10:17.130Z,14.56
2019-05-30T10:11:22.074Z,14.55
2019-05-30T10:12:18.215Z,14.56
2019-05-30T10:13:18.335Z,14.49
2019-05-30T10:14:19.042Z,14.44
2019-05-30T10:15:19.918Z,14.41
2019-05-30T10:16:20.363Z,14.48
2019-05-30T10:17:21.058Z,14.48
2019-05-30T10:18:21.628Z,14.49
2019-05-30T10:19:22.632Z,14.51
2019-05-30T10:20:23.324Z,14.56
2019-05-30T10:21:23.465Z,14.45
2019-05-30T10:22:23.866Z,14.56
2019-05-30T10:23:24.560Z,14.45
2019-05-30T10:24:24.688Z,14.49
2019-05-30T10:25:25.668Z,14.45
2019-05-30T10:26:26.386Z,14.55
2019-05-30T10:27:26.804Z,14.45
2019-05-30T10:28:28.095Z,14.44
2019-05-30T10:29:27.864Z,14.49
2019-05-30T10:30:28.891Z,14.45
2019-05-30T10:31:29.032Z,14.48
2019-05-30T10:32:29.980Z,14.51
2019-05-30T10:33:30.811Z,14.4
2019-05-30T10:34:31.821Z,14.45
2019-05-30T10:35:35.429Z,14.44
2019-05-30T10:36:46.001Z,14.45
2019-05-30T10:37:34.073Z,14.52
2019-05-30T10:38:35.197Z,14.58
2019-05-30T10:39:36.768Z,14.55
2019-05-30T10:40:37.997Z,14.63
2019-05-30T10:41:36.924Z,14.67
2019-05-30T10:42:37.963Z,14.82
2019-05-30T10:43:38.994Z,14.73
2019-05-30T10:44:39.872Z,14.79
2019-05-30T10:45:39.388Z,14.86
2019-05-30T10:46:40.610Z,14.81
2019-05-30T10:47:41.106Z,14.96
2019-05-30T10:48:41.936Z,14.81
2019-05-30T10:49:42.225Z,14.93
2019-05-30T10:50:42.652Z,14.85
2019-05-30T10:51:43.300Z,14.86
2019-05-30T10:52:45.248Z,14.97
2019-05-30T10:53:48.637Z,14.89
2019-05-30T10:54:49.171Z,14.89
2019-05-30T10:55:48.165Z,14.96
2019-05-30T10:56:49.859Z,14.81
2019-05-30T10:57:50.126Z,14.73
2019-05-30T10:58:48.610Z,14.86
2019-05-30T10:59:52.468Z,14.79
2019-05-30T11:00:55.646Z,14.86
2019-05-30T11:01:54.321Z,14.79
2019-05-30T11:02:53.197Z,14.86
2019-05-30T11:03:55.385Z,15.02
2019-05-30T11:04:55.586Z,14.97
2019-05-30T11:05:55.275Z,14.97
2019-05-30T11:07:13.028Z,14.96
2019-05-30T11:08:07.106Z,15.02
2019-05-30T11:08:57.467Z,14.94
2019-05-30T11:09:58.798Z,15.04
2019-05-30T11:10:58.202Z,15.05
2019-05-30T11:11:58.388Z,15.12
2019-05-30T11:13:07.744Z,15.18
2019-05-30T11:13:58.790Z,15.19
2019-05-30T11:14:59.553Z,15.12
2019-05-30T11:16:01.307Z,15.29
2019-05-30T11:17:01.330Z,15.32
2019-05-30T11:18:03.729Z,15.39
2019-05-30T11:19:08.212Z,15.3
2019-05-30T11:20:03.399Z,15.27
2019-05-30T11:21:04.150Z,15.29
2019-05-30T11:22:03.938Z,15.23
2019-05-30T11:23:04.358Z,15.15
2019-05-30T11:24:04.783Z,15.17
2019-05-30T11:25:05.416Z,15.22
2019-05-30T11:26:05.845Z,15.3
2019-05-30T11:27:06.250Z,15.26
2019-05-30T11:28:06.826Z,15.36
2019-05-30T11:29:06.893Z,15.39
2019-05-30T11:30:07.623Z,15.51
2019-05-30T11:31:10.987Z,15.52
2019-05-30T11:32:09.424Z,15.73
2019-05-30T11:33:09.836Z,15.67
2019-05-30T11:34:10.275Z,15.83
2019-05-30T11:35:11.034Z,15.73
2019-05-30T11:36:11.470Z,15.81
2019-05-30T11:37:24.862Z,15.73
2019-05-30T11:38:12.987Z,15.72
2019-05-30T11:39:13.895Z,15.69
2019-05-30T11:40:14.855Z,15.72
2019-05-30T11:41:15.350Z,15.73
2019-05-30T11:42:16.008Z,15.73
2019-05-30T11:43:17.104Z,15.72
2019-05-30T11:44:17.375Z,15.67
2019-05-30T11:45:18.100Z,15.78
2019-05-30T11:46:18.737Z,15.75
2019-05-30T11:47:19.325Z,15.63
2019-05-30T11:48:20.252Z,15.5
2019-05-30T11:49:20.150Z,15.44
2019-05-30T11:50:20.619Z,15.5
2019-05-30T11:51:21.104Z,15.45
2019-05-30T11:52:21.564Z,15.43
2019-05-30T11:53:22.318Z,15.45
2019-05-30T11:54:22.744Z,15.5
2019-05-30T11:55:23.351Z,15.57
2019-05-30T11:56:24.351Z,15.73
2019-05-30T11:57:24.505Z,15.75
2019-05-30T11:58:25.880Z,15.85
2019-05-30T11:59:25.609Z,15.88
2019-05-30T12:00:26.383Z,15.83
2019-05-30T12:01:26.884Z,15.98
2019-05-30T12:02:27.884Z,16.08
2019-05-30T12:03:30.265Z,16.13
2019-05-30T12:04:29.674Z,16.18
2019-05-30T12:05:30.237Z,16.26
2019-05-30T12:06:30.949Z,16.37
2019-05-30T12:07:41.663Z,16.49
2019-05-30T12:08:32.026Z,16.58
2019-05-30T12:09:32.951Z,16.61
2019-05-30T12:10:33.675Z,16.59
2019-05-30T12:11:33.808Z,16.64
2019-05-30T12:12:33.995Z,16.74
2019-05-30T12:13:34.872Z,16.61
2019-05-30T12:14:35.022Z,16.72
2019-05-30T12:15:35.736Z,16.57
2019-05-30T12:16:37.039Z,16.62
2019-05-30T12:17:36.972Z,16.65
2019-05-30T12:18:37.698Z,16.79
2019-05-30T12:19:38.652Z,16.79
2019-05-30T12:20:39.450Z,16.98
2019-05-30T12:21:40.023Z,17.1
2019-05-30T12:22:40.635Z,17.12
2019-05-30T12:23:41.213Z,17.1
2019-05-30T12:24:42.382Z,17.07
2019-05-30T12:25:43.083Z,17.02
2019-05-30T12:26:43.092Z,16.98
2019-05-30T12:27:43.218Z,17.07
2019-05-30T12:28:43.358Z,17.19
2019-05-30T12:29:43.788Z,17.24
2019-05-30T12:31:06.686Z,17.32
2019-05-30T12:31:44.565Z,17.32
2019-05-30T12:32:45.939Z,17.41
2019-05-30T12:33:46.741Z,17.52
2019-05-30T12:34:47.513Z,17.69
2019-05-30T12:35:48.220Z,17.76
2019-05-30T12:36:48.772Z,17.97
2019-05-30T12:38:06.662Z,18.13
2019-05-30T12:38:49.132Z,18.18
2019-05-30T12:39:49.805Z,18.21
2019-05-30T12:40:50.351Z,18.31
2019-05-30T12:41:50.810Z,18.39
2019-05-30T12:42:58.019Z,18.36
2019-05-30T12:43:53.305Z,18.39
2019-05-30T12:44:53.494Z,18.39
2019-05-30T12:45:54.834Z,18.24
2019-05-30T12:46:55.423Z,18.41
2019-05-30T12:47:55.417Z,18.64
2019-05-30T12:48:55.774Z,18.79
2019-05-30T12:49:57.411Z,18.88
2019-05-30T12:50:57.790Z,18.97
2019-05-30T12:51:58.910Z,19.09
2019-05-30T12:53:02.108Z,19.3
2019-05-30T12:54:01.070Z,19.26
2019-05-30T12:55:03.033Z,19.44
2019-05-30T12:56:03.204Z,19.62
2019-05-30T12:57:03.117Z,19.84
2019-05-30T12:58:03.574Z,19.84
2019-05-30T12:59:04.356Z,19.97
2019-05-30T13:00:18.595Z,20.04
2019-05-30T13:01:05.152Z,20.15
2019-05-30T13:02:07.852Z,20.18
2019-05-30T13:03:07.677Z,20.27
2019-05-30T13:04:09.005Z,20.39
2019-05-30T13:05:08.882Z,20.4
2019-05-30T13:06:09.329Z,20.53
2019-05-30T13:07:10.181Z,20.55